createdAt,value
2019-03-12T00:01:19.882Z,376
2019-03-12T00:02:26.871Z,377
2019-03-12T00:03:34.063Z,377
2019-03-12T00:04:41.264Z,376
2019-03-12T00:05:48.206Z,376
2019-03-12T00:06:55.410Z,376
2019-03-12T00:08:02.627Z,377
2019-03-12T00:09:09.834Z,375
2019-03-12T00:10:17.052Z,376
2019-03-12T00:11:24.253Z,376
2019-03-12T00:12:31.199Z,377
2019-03-12T00:13:38.391Z,376
2019-03-12T00:14:45.610Z,376
2019-03-12T00:15:52.816Z,375
2019-03-12T00:17:00.048Z,376
2019-03-12T00:18:06.980Z,375
2019-03-12T00:19:13.972Z,376
2019-03-12T00:20:20.927Z,375
2019-03-12T00:21:28.159Z,375
2019-03-12T00:22:34.812Z,376
2019-03-12T00:23:42.029Z,375
2019-03-12T00:24:49.257Z,375
2019-03-12T00:25:56.481Z,375
2019-03-12T00:27:03.854Z,375
2019-03-12T00:28:10.788Z,375
2019-03-12T00:29:18.222Z,374
2019-03-12T00:30:25.436Z,375
2019-03-12T00:31:32.721Z,374
2019-03-12T00:32:39.931Z,374
2019-03-12T00:33:47.154Z,376
2019-03-12T00:34:54.103Z,376
2019-03-12T00:36:01.312Z,376
2019-03-12T00:37:08.528Z,376
2019-03-12T00:38:15.961Z,375
2019-03-12T00:39:22.608Z,375
2019-03-12T00:40:29.828Z,375
2019-03-12T00:41:37.037Z,375
2019-03-12T00:42:44.482Z,375
2019-03-12T00:43:51.717Z,376
2019-03-12T00:44:58.951Z,375
2019-03-12T00:46:05.874Z,375
2019-03-12T00:47:13.079Z,375
2019-03-12T00:48:20.006Z,374
2019-03-12T00:49:27.529Z,375
2019-03-12T00:50:34.460Z,375
2019-03-12T00:51:41.710Z,375
2019-03-12T00:52:48.921Z,375
2019-03-12T00:53:56.149Z,375
2019-03-12T00:55:03.347Z,375
2019-03-12T00:56:10.552Z,375
2019-03-12T00:57:17.486Z,374
2019-03-12T00:58:24.687Z,375
2019-03-12T00:59:31.620Z,380
2019-03-12T01:00:38.830Z,384
2019-03-12T01:01:46.032Z,386
2019-03-12T01:02:53.252Z,389
2019-03-12T01:04:00.190Z,390
2019-03-12T01:05:07.127Z,390
2019-03-12T01:06:14.327Z,392
2019-03-12T01:07:21.540Z,394
2019-03-12T01:08:28.744Z,393
2019-03-12T01:09:36.177Z,395
2019-03-12T01:10:43.390Z,397
2019-03-12T01:11:50.596Z,399
2019-03-12T01:12:57.807Z,399
2019-03-12T01:14:05.007Z,401
2019-03-12T01:15:12.208Z,402
2019-03-12T01:16:19.404Z,402
2019-03-12T01:17:26.339Z,403
2019-03-12T01:18:33.266Z,402
2019-03-12T01:19:40.480Z,402
2019-03-12T01:20:47.768Z,400
2019-03-12T01:21:54.969Z,398
2019-03-12T01:23:02.169Z,395
2019-03-12T01:24:09.379Z,395
2019-03-12T01:25:16.582Z,397
2019-03-12T01:26:23.510Z,398
2019-03-12T01:27:30.448Z,399
2019-03-12T01:28:37.654Z,400
2019-03-12T01:29:44.381Z,402
2019-03-12T01:30:51.587Z,399
2019-03-12T01:31:58.518Z,401
2019-03-12T01:33:05.449Z,401
2019-03-12T01:34:12.657Z,402
2019-03-12T01:35:19.862Z,403
2019-03-12T01:36:27.076Z,402
2019-03-12T01:37:34.280Z,402
2019-03-12T01:38:40.949Z,401
2019-03-12T01:39:48.145Z,399
2019-03-12T01:40:55.351Z,394
2019-03-12T01:42:02.555Z,395
2019-03-12T01:43:09.833Z,397
2019-03-12T01:44:17.030Z,398
2019-03-12T01:45:23.975Z,398
2019-03-12T01:46:30.913Z,399
2019-03-12T01:47:37.865Z,399
2019-03-12T01:48:45.080Z,400
2019-03-12T01:49:52.286Z,398
2019-03-12T01:50:59.486Z,399
2019-03-12T01:52:06.698Z,400
2019-03-12T01:53:13.901Z,401
2019-03-12T01:54:21.115Z,402
2019-03-12T01:55:28.067Z,401
2019-03-12T01:56:35.272Z,401
2019-03-12T01:57:42.486Z,401
2019-03-12T01:58:49.695Z,400
2019-03-12T01:59:56.636Z,399
2019-03-12T02:01:03.838Z,398
2019-03-12T02:02:10.484Z,399
2019-03-12T02:03:17.135Z,398
2019-03-12T02:04:24.080Z,397
2019-03-12T02:05:31.270Z,396
2019-03-12T02:06:38.197Z,396
2019-03-12T02:07:44.839Z,396
2019-03-12T02:08:52.044Z,396
2019-03-12T02:09:59.319Z,395
2019-03-12T02:11:06.507Z,395
2019-03-12T02:12:13.709Z,394
2019-03-12T02:13:20.917Z,394
2019-03-12T02:14:28.121Z,394
2019-03-12T02:15:35.077Z,394
2019-03-12T02:16:41.997Z,394
2019-03-12T02:17:49.197Z,393
2019-03-12T02:18:56.393Z,393
2019-03-12T02:20:03.334Z,392
2019-03-12T02:21:10.547Z,392
2019-03-12T02:22:17.748Z,392
2019-03-12T02:23:24.685Z,392
2019-03-12T02:24:31.889Z,391
2019-03-12T02:25:39.111Z,395
2019-03-12T02:26:46.317Z,396
2019-03-12T02:27:53.520Z,397
2019-03-12T02:29:00.722Z,395
2019-03-12T02:30:07.925Z,396
2019-03-12T02:31:15.122Z,396
2019-03-12T02:32:22.327Z,395
2019-03-12T02:33:29.554Z,401
2019-03-12T02:34:36.482Z,403
2019-03-12T02:35:43.692Z,405
2019-03-12T02:36:50.654Z,404
2019-03-12T02:37:57.882Z,402
2019-03-12T02:39:05.097Z,401
2019-03-12T02:40:12.029Z,400
2019-03-12T02:41:19.241Z,400
2019-03-12T02:42:26.437Z,399
2019-03-12T02:43:33.640Z,400
2019-03-12T02:44:40.850Z,399
2019-03-12T02:45:48.058Z,397
2019-03-12T02:46:55.358Z,397
2019-03-12T02:48:02.577Z,397
2019-03-12T02:49:10.987Z,396
2019-03-12T02:50:18.219Z,396
2019-03-12T02:51:24.909Z,396
2019-03-12T02:52:31.865Z,395
2019-03-12T02:53:38.797Z,396
2019-03-12T02:54:46.009Z,395
2019-03-12T02:56:07.885Z,395
2019-03-12T02:57:14.809Z,394
2019-03-12T02:58:22.010Z,394
2019-03-12T02:59:29.029Z,393
2019-03-12T03:00:36.251Z,393
2019-03-12T03:01:43.433Z,392
2019-03-12T03:02:50.630Z,393
2019-03-12T03:03:57.967Z,393
2019-03-12T03:05:05.164Z,392
2019-03-12T03:06:11.828Z,392
2019-03-12T03:07:19.028Z,392
2019-03-12T03:08:26.240Z,392
2019-03-12T03:09:33.445Z,391
2019-03-12T03:10:40.647Z,390
2019-03-12T03:11:51.527Z,391
2019-03-12T03:12:58.734Z,391
2019-03-12T03:14:05.966Z,391
2019-03-12T03:15:13.202Z,391
2019-03-12T03:16:25.316Z,392
2019-03-12T03:17:32.245Z,390
2019-03-12T03:18:38.910Z,391
2019-03-12T03:19:46.120Z,392
2019-03-12T03:20:53.318Z,391
2019-03-12T03:22:00.542Z,391
2019-03-12T03:23:07.522Z,391
2019-03-12T03:24:14.739Z,392
2019-03-12T03:25:21.938Z,390
2019-03-12T03:26:29.151Z,391
2019-03-12T03:27:35.816Z,392
2019-03-12T03:28:42.760Z,391
2019-03-12T03:29:49.992Z,391
2019-03-12T03:30:57.198Z,392
2019-03-12T03:32:04.643Z,392
2019-03-12T03:33:11.897Z,392
2019-03-12T03:34:18.818Z,392
2019-03-12T03:35:34.178Z,393
2019-03-12T03:36:41.391Z,394
2019-03-12T03:37:48.608Z,394
2019-03-12T03:38:55.818Z,394
2019-03-12T03:40:02.750Z,394
2019-03-12T03:41:09.969Z,394
2019-03-12T03:42:17.158Z,394
2019-03-12T03:43:24.256Z,395
2019-03-12T03:44:31.180Z,396
2019-03-12T03:45:38.392Z,395
2019-03-12T03:46:45.599Z,395
2019-03-12T03:47:52.805Z,395
2019-03-12T03:49:00.025Z,395
2019-03-12T03:50:07.263Z,395
2019-03-12T03:51:14.203Z,395
2019-03-12T03:52:21.408Z,396
2019-03-12T03:53:28.658Z,397
2019-03-12T03:54:35.874Z,396
2019-03-12T03:55:42.818Z,399
2019-03-12T03:56:49.740Z,398
2019-03-12T03:57:56.393Z,396
2019-03-12T03:59:03.325Z,397
2019-03-12T04:00:10.680Z,397
2019-03-12T04:01:17.616Z,397
2019-03-12T04:02:24.933Z,398
2019-03-12T04:03:32.149Z,398
2019-03-12T04:04:39.361Z,399
2019-03-12T04:05:46.642Z,398
2019-03-12T04:06:53.604Z,398
2019-03-12T04:08:00.810Z,397
2019-03-12T04:09:07.733Z,397
2019-03-12T04:10:14.944Z,399
2019-03-12T04:11:21.877Z,397
2019-03-12T04:12:29.074Z,397
2019-03-12T04:13:36.534Z,397
2019-03-12T04:14:43.731Z,398
2019-03-12T04:15:51.169Z,398
2019-03-12T04:16:58.117Z,398
2019-03-12T04:18:05.610Z,400
2019-03-12T04:19:12.534Z,400
2019-03-12T04:20:19.856Z,399
2019-03-12T04:21:27.274Z,401
2019-03-12T04:22:34.596Z,400
2019-03-12T04:23:41.799Z,400
2019-03-12T04:24:48.996Z,400
2019-03-12T04:25:55.932Z,398
2019-03-12T04:27:03.165Z,396
2019-03-12T04:28:10.132Z,396
2019-03-12T04:29:17.338Z,397
2019-03-12T04:30:24.259Z,396
2019-03-12T04:31:31.700Z,395
2019-03-12T04:32:39.000Z,395
2019-03-12T04:33:45.897Z,396
2019-03-12T04:34:53.099Z,397
2019-03-12T04:36:00.041Z,400
2019-03-12T04:37:07.263Z,402
2019-03-12T04:38:14.470Z,401
2019-03-12T04:39:21.688Z,401
2019-03-12T04:40:28.904Z,402
2019-03-12T04:41:36.116Z,401
2019-03-12T04:42:43.314Z,400
2019-03-12T04:43:50.252Z,400
2019-03-12T04:44:57.473Z,403
2019-03-12T04:46:04.672Z,405
2019-03-12T04:47:11.592Z,406
2019-03-12T04:48:18.828Z,405
2019-03-12T04:49:26.041Z,406
2019-03-12T04:50:33.292Z,402
2019-03-12T04:51:40.332Z,400
2019-03-12T04:52:47.289Z,398
2019-03-12T04:53:54.720Z,398
2019-03-12T04:55:01.933Z,398
2019-03-12T04:56:09.141Z,400
2019-03-12T04:57:16.356Z,403
2019-03-12T04:58:23.803Z,405
2019-03-12T04:59:31.080Z,408
2019-03-12T05:00:38.300Z,408
2019-03-12T05:01:45.231Z,408
2019-03-12T05:02:52.427Z,409
2019-03-12T05:03:59.632Z,410
2019-03-12T05:05:06.666Z,410
2019-03-12T05:06:13.858Z,410
2019-03-12T05:07:20.800Z,410
2019-03-12T05:08:28.007Z,410
2019-03-12T05:09:35.438Z,411
2019-03-12T05:10:42.644Z,410
2019-03-12T05:11:50.070Z,409
2019-03-12T05:12:57.275Z,410
2019-03-12T05:14:04.481Z,411
2019-03-12T05:15:11.700Z,413
2019-03-12T05:16:18.635Z,413
2019-03-12T05:17:25.575Z,414
2019-03-12T05:18:32.769Z,417
2019-03-12T05:19:40.042Z,418
2019-03-12T05:20:47.248Z,419
2019-03-12T05:21:54.176Z,426
2019-03-12T05:23:01.391Z,425
2019-03-12T05:24:08.597Z,422
2019-03-12T05:25:15.861Z,419
2019-03-12T05:26:23.066Z,418
2019-03-12T05:27:30.014Z,416
2019-03-12T05:28:37.211Z,415
2019-03-12T05:29:44.414Z,414
2019-03-12T05:30:51.615Z,414
2019-03-12T05:31:59.125Z,415
2019-03-12T05:33:06.334Z,414
2019-03-12T05:34:13.771Z,416
2019-03-12T05:35:20.979Z,416
2019-03-12T05:36:28.202Z,415
2019-03-12T05:37:35.426Z,417
2019-03-12T05:38:42.071Z,417
2019-03-12T05:39:49.285Z,416
2019-03-12T05:40:56.229Z,417
2019-03-12T05:42:03.161Z,417
2019-03-12T05:43:10.597Z,416
2019-03-12T05:44:17.812Z,417
2019-03-12T05:45:25.256Z,416
2019-03-12T05:46:32.182Z,416
2019-03-12T05:47:39.408Z,416
2019-03-12T05:48:46.340Z,417
2019-03-12T05:49:53.033Z,417
2019-03-12T05:51:00.229Z,417
2019-03-12T05:52:07.465Z,416
2019-03-12T05:53:14.682Z,417
2019-03-12T05:54:21.943Z,417
2019-03-12T05:55:29.162Z,417
2019-03-12T05:56:36.363Z,417
2019-03-12T05:57:43.558Z,417
2019-03-12T05:58:50.973Z,417
2019-03-12T05:59:57.903Z,417
2019-03-12T06:01:05.339Z,417
2019-03-12T06:02:12.268Z,417
2019-03-12T06:03:19.195Z,417
2019-03-12T06:04:26.149Z,416
2019-03-12T06:05:35.205Z,416
2019-03-12T06:06:42.431Z,415
2019-03-12T06:07:49.660Z,414
2019-03-12T06:08:56.857Z,414
2019-03-12T06:10:04.291Z,415
2019-03-12T06:11:11.303Z,415
2019-03-12T06:12:18.462Z,415
2019-03-12T06:13:25.671Z,415
2019-03-12T06:14:32.868Z,415
2019-03-12T06:15:40.073Z,413
2019-03-12T06:16:47.286Z,414
2019-03-12T06:17:54.511Z,413
2019-03-12T06:19:01.731Z,413
2019-03-12T06:20:08.946Z,413
2019-03-12T06:21:16.387Z,413
2019-03-12T06:22:23.600Z,413
2019-03-12T06:23:30.791Z,413
2019-03-12T06:24:37.994Z,413
2019-03-12T06:25:45.261Z,412
2019-03-12T06:26:52.457Z,412
2019-03-12T06:27:59.674Z,412
2019-03-12T06:29:06.607Z,411
2019-03-12T06:30:13.570Z,411
2019-03-12T06:31:20.807Z,412
2019-03-12T06:32:28.031Z,412
2019-03-12T06:33:34.977Z,412
2019-03-12T06:34:42.193Z,412
2019-03-12T06:35:49.119Z,411
2019-03-12T06:36:56.296Z,412
2019-03-12T06:38:03.510Z,412
2019-03-12T06:39:10.690Z,411
2019-03-12T06:40:17.907Z,411
2019-03-12T06:41:25.350Z,411
2019-03-12T06:42:32.582Z,411
2019-03-12T06:43:39.531Z,411
2019-03-12T06:44:46.757Z,411
2019-03-12T06:45:53.698Z,411
2019-03-12T06:47:00.649Z,411
2019-03-12T06:48:07.621Z,411
2019-03-12T06:49:14.853Z,411
2019-03-12T06:50:22.279Z,410
2019-03-12T06:51:29.480Z,410
2019-03-12T06:52:36.945Z,411
2019-03-12T06:53:44.172Z,411
2019-03-12T06:54:51.119Z,411
2019-03-12T06:55:58.348Z,411
2019-03-12T06:57:05.563Z,411
2019-03-12T06:58:12.780Z,411
2019-03-12T06:59:20.070Z,410
2019-03-12T07:00:27.290Z,410
2019-03-12T07:01:34.534Z,411
2019-03-12T07:02:41.775Z,410
2019-03-12T07:03:49.025Z,411
2019-03-12T07:04:56.028Z,410
2019-03-12T07:06:02.971Z,411
2019-03-12T07:07:13.421Z,411
2019-03-12T07:08:23.793Z,412
2019-03-12T07:09:31.013Z,409
2019-03-12T07:10:38.253Z,408
2019-03-12T07:11:45.470Z,406
2019-03-12T07:12:52.691Z,403
2019-03-12T07:13:59.623Z,403
2019-03-12T07:15:06.868Z,402
2019-03-12T07:16:14.298Z,403
2019-03-12T07:17:21.774Z,402
2019-03-12T07:18:28.995Z,401
2019-03-12T07:19:36.172Z,400
2019-03-12T07:20:43.383Z,399
2019-03-12T07:21:50.608Z,397
2019-03-12T07:22:57.843Z,396
2019-03-12T07:24:04.996Z,397
2019-03-12T07:25:11.961Z,396
2019-03-12T07:26:19.106Z,396
2019-03-12T07:27:26.069Z,396
2019-03-12T07:28:33.280Z,396
2019-03-12T07:29:40.523Z,395
2019-03-12T07:30:47.726Z,396
2019-03-12T07:31:54.958Z,397
2019-03-12T07:33:02.190Z,395
2019-03-12T07:34:09.397Z,395
2019-03-12T07:35:16.628Z,396
2019-03-12T07:36:23.849Z,397
2019-03-12T07:37:31.084Z,397
2019-03-12T07:38:38.056Z,397
2019-03-12T07:39:45.362Z,396
2019-03-12T07:40:52.558Z,396
2019-03-12T07:41:59.980Z,396
2019-03-12T07:43:06.937Z,397
2019-03-12T07:44:13.863Z,397
2019-03-12T07:45:21.073Z,397
2019-03-12T07:46:28.374Z,398
2019-03-12T07:47:37.101Z,397
2019-03-12T07:48:44.318Z,396
2019-03-12T07:49:51.540Z,396
2019-03-12T07:50:58.749Z,396
2019-03-12T07:52:09.159Z,397
2019-03-12T07:53:16.327Z,396
2019-03-12T07:54:23.533Z,396
2019-03-12T07:55:31.025Z,396
2019-03-12T07:56:38.230Z,397
2019-03-12T07:57:45.159Z,396
2019-03-12T07:58:52.440Z,396
2019-03-12T07:59:59.663Z,396
2019-03-12T08:01:06.929Z,395
2019-03-12T08:02:14.170Z,395
2019-03-12T08:03:21.398Z,395
2019-03-12T08:04:44.308Z,395
2019-03-12T08:05:51.263Z,395
2019-03-12T08:06:58.476Z,395
2019-03-12T08:08:05.697Z,394
2019-03-12T08:09:12.863Z,394
2019-03-12T08:10:20.080Z,394
2019-03-12T08:11:27.530Z,395
2019-03-12T08:12:35.618Z,395
2019-03-12T08:13:42.590Z,395
2019-03-12T08:14:49.800Z,394
2019-03-12T08:15:57.007Z,394
2019-03-12T08:17:04.220Z,395
2019-03-12T08:18:11.523Z,394
2019-03-12T08:19:18.743Z,394
2019-03-12T08:20:25.977Z,393
2019-03-12T08:21:33.207Z,393
2019-03-12T08:22:40.414Z,394
2019-03-12T08:23:47.368Z,392
2019-03-12T08:24:54.571Z,394
2019-03-12T08:26:01.781Z,394
2019-03-12T08:27:08.995Z,394
2019-03-12T08:28:15.925Z,394
2019-03-12T08:29:23.379Z,394
2019-03-12T08:30:30.608Z,393
2019-03-12T08:31:37.841Z,394
2019-03-12T08:32:44.885Z,393
2019-03-12T08:33:52.233Z,393
2019-03-12T08:34:59.173Z,393
2019-03-12T08:36:06.336Z,392
2019-03-12T08:37:13.571Z,392
2019-03-12T08:38:21.008Z,392
2019-03-12T08:39:28.215Z,392
2019-03-12T08:40:35.648Z,393
2019-03-12T08:41:42.871Z,392
2019-03-12T08:42:55.822Z,392
2019-03-12T08:44:03.038Z,392
2019-03-12T08:45:16.576Z,391
2019-03-12T08:46:24.170Z,391
2019-03-12T08:47:31.394Z,391
2019-03-12T08:48:38.620Z,392
2019-03-12T08:49:45.845Z,392
2019-03-12T08:50:53.064Z,392
2019-03-12T08:52:00.282Z,390
2019-03-12T08:53:07.479Z,390
2019-03-12T08:54:14.924Z,390
2019-03-12T08:55:24.929Z,390
2019-03-12T08:56:33.837Z,389
2019-03-12T08:57:41.039Z,389
2019-03-12T08:58:47.964Z,390
2019-03-12T08:59:55.181Z,391
2019-03-12T09:01:01.847Z,389
2019-03-12T09:02:08.778Z,390
2019-03-12T09:03:45.599Z,390
2019-03-12T09:04:52.525Z,389
2019-03-12T09:05:59.757Z,389
2019-03-12T09:07:06.963Z,390
2019-03-12T09:08:14.170Z,390
2019-03-12T23:00:07.374Z,375
2019-03-12T23:01:14.571Z,388
2019-03-12T23:02:21.993Z,388
2019-03-12T23:03:29.191Z,394
2019-03-12T23:04:36.419Z,406
2019-03-12T23:05:43.634Z,413
2019-03-12T23:06:50.282Z,418
2019-03-12T23:07:57.492Z,417
2019-03-12T23:09:04.705Z,418
2019-03-12T23:10:11.912Z,420
2019-03-12T23:11:19.130Z,430
2019-03-12T23:12:26.344Z,421
2019-03-12T23:13:33.542Z,417
2019-03-12T23:14:40.485Z,420
2019-03-12T23:15:47.815Z,417
2019-03-12T23:16:55.006Z,408
2019-03-12T23:18:02.215Z,414
2019-03-12T23:19:09.154Z,409
2019-03-12T23:20:16.355Z,408
2019-03-12T23:21:23.556Z,403
2019-03-12T23:22:30.771Z,408
2019-03-12T23:23:37.968Z,405
2019-03-12T23:24:44.893Z,408
2019-03-12T23:25:52.101Z,406
2019-03-12T23:26:59.320Z,407
2019-03-12T23:28:06.529Z,409
2019-03-12T23:29:13.767Z,411
2019-03-12T23:30:20.969Z,407
2019-03-12T23:31:28.202Z,405
2019-03-12T23:32:35.409Z,406
2019-03-12T23:33:42.625Z,404
2019-03-12T23:34:49.822Z,404
2019-03-12T23:35:56.757Z,405
2019-03-12T23:37:03.699Z,406
2019-03-12T23:38:10.922Z,404
2019-03-12T23:39:18.130Z,402
2019-03-12T23:40:25.348Z,401
2019-03-12T23:41:32.280Z,399
2019-03-12T23:42:39.508Z,399
2019-03-12T23:43:46.713Z,401
2019-03-12T23:44:53.924Z,403
2019-03-12T23:46:01.138Z,402
2019-03-12T23:47:08.339Z,403
2019-03-12T23:48:15.549Z,398
2019-03-12T23:49:22.754Z,394
2019-03-12T23:50:29.681Z,391
2019-03-12T23:51:36.616Z,389
2019-03-12T23:52:43.545Z,389
2019-03-12T23:53:50.750Z,389
2019-03-12T23:54:57.957Z,389
2019-03-12T23:56:05.175Z,389
2019-03-12T23:57:12.120Z,390
2019-03-12T23:58:19.339Z,390
2019-03-12T23:59:26.564Z,390
